To NAV CANADA Home Page Login to a new session Search on AWWS site Disclaimer Vers la page française équivalente Tips FAQ What's new on the site To the Forecasts and Observations / NOTAM section To "File a Flight Plan" website Publications and other links Update of the User's profile FIC Telephone Numbers My Weather Data Folder Route Weather Data Regional Weather Data Local Weather Data To the Forecasts and Observations / NOTAM section
Request Generated 03/19/2019 at 23:11:41 UTC . Weather information available at that time is displayed.

METAR/TAF

DAWSON CREEK/BC    (show WxCam)

METAR CYDQ 192300Z AUTO 18002KT 9SM CLR 12/M02 A3009 RMK SLP214=
METAR CYDQ 192200Z AUTO 20002KT 9SM CLR 11/M03 A3011 RMK SLP220=
METAR CYDQ 192100Z AUTO 00000KT 9SM CLR 10/M02 A3013 RMK SLP227=

TAF CYDQ 191838Z 1919/2005 VRB03KT P6SM SKC
RMK FCST BASED ON AUTO OBS. NXT FCST BY 200100Z=
Your time UTC time
Weather data provided by Environment Canada and NAV CANADA